createdAt,value
2023-11-19T00:02:19.044Z,102079.73
2023-11-19T00:04:47.324Z,102079.17
2023-11-19T00:07:15.706Z,102075.41
2023-11-19T00:09:43.927Z,102078.42
2023-11-19T00:12:12.090Z,102073.94
2023-11-19T00:14:40.453Z,102072.13
2023-11-19T00:17:09.903Z,102067.48
2023-11-19T00:19:38.074Z,102063.00
2023-11-19T00:22:06.887Z,102058.70
2023-11-19T00:24:35.207Z,102058.34
2023-11-19T00:27:03.621Z,102053.84
2023-11-19T00:29:31.869Z,102050.09
2023-11-19T00:32:00.113Z,102049.02
2023-11-19T00:34:28.420Z,102044.36
2023-11-19T00:36:57.244Z,102038.98
2023-11-19T00:39:25.425Z,102033.09
2023-11-19T00:41:53.654Z,102027.19
2023-11-19T00:44:22.109Z,102026.09
2023-11-19T00:46:50.950Z,102022.66
2023-11-19T00:49:19.198Z,102016.55
2023-11-19T00:51:47.688Z,102016.84
2023-11-19T00:54:15.804Z,102010.52
2023-11-19T00:56:44.518Z,102002.61
2023-11-19T00:59:12.870Z,102005.73
2023-11-19T01:03:41.975Z,102002.85
2023-11-19T01:06:10.537Z,102005.06
2023-11-19T01:08:39.005Z,102009.64
2023-11-19T01:11:07.682Z,102006.35
2023-11-19T01:13:35.884Z,102006.29
2023-11-19T01:16:04.374Z,102006.98
2023-11-19T01:18:32.816Z,102003.04
2023-11-19T01:21:01.046Z,102001.23
2023-11-19T01:23:29.176Z,102001.77
2023-11-19T01:25:57.885Z,101999.48
2023-11-19T01:28:26.110Z,101998.95
2023-11-19T01:30:55.395Z,101998.62
2023-11-19T01:33:23.938Z,101994.70
2023-11-19T01:35:52.170Z,101995.60
2023-11-19T01:38:20.492Z,101992.59
2023-11-19T01:40:48.741Z,101990.97
2023-11-19T01:43:36.791Z,101985.23
2023-11-19T01:46:07.833Z,101988.75
2023-11-19T01:48:36.397Z,101986.61
2023-11-19T01:51:05.590Z,101983.59
2023-11-19T01:53:35.382Z,101983.77
2023-11-19T01:56:05.144Z,101979.64
2023-11-19T01:58:33.524Z,101977.48
2023-11-19T02:01:01.975Z,101976.35
2023-11-19T02:03:32.693Z,101975.06
2023-11-19T02:06:02.035Z,101975.55
2023-11-19T02:08:31.452Z,101971.55
2023-11-19T02:10:59.652Z,101969.17
2023-11-19T02:13:28.687Z,101965.89
2023-11-19T02:15:57.098Z,101965.45
2023-11-19T02:18:29.349Z,101961.69
2023-11-19T02:21:01.339Z,101958.23
2023-11-19T02:23:30.001Z,101960.48
2023-11-19T02:26:23.872Z,101960.79
2023-11-19T02:28:52.169Z,101958.23
2023-11-19T02:31:20.616Z,101956.42
2023-11-19T02:33:49.009Z,101953.30
2023-11-19T02:36:17.380Z,101950.89
2023-11-19T02:38:45.538Z,101946.21
2023-11-19T02:41:15.562Z,101940.48
2023-11-19T02:43:43.828Z,101942.18
2023-11-19T02:48:43.185Z,101937.70
2023-11-19T02:51:11.789Z,101936.40
2023-11-19T02:53:40.212Z,101934.38
2023-11-19T02:56:09.088Z,101927.95
2023-11-19T02:58:37.418Z,101927.00
2023-11-19T03:01:05.957Z,101926.29
2023-11-19T03:03:34.639Z,101921.14
2023-11-19T03:06:02.984Z,101920.61
2023-11-19T03:08:31.201Z,101917.02
2023-11-19T03:10:59.466Z,101913.92
2023-11-19T03:13:27.796Z,101912.80
2023-11-19T03:15:56.003Z,101915.46
2023-11-19T03:18:24.859Z,101915.98
2023-11-19T03:20:53.291Z,101914.34
2023-11-19T03:23:21.475Z,101918.24
2023-11-19T03:25:49.744Z,101917.17
2023-11-19T03:28:17.991Z,101917.71
2023-11-19T03:30:47.018Z,101912.39
2023-11-19T03:33:15.890Z,101909.71
2023-11-19T03:35:44.186Z,101905.77
2023-11-19T03:38:12.268Z,101909.63
2023-11-19T03:40:40.433Z,101909.80
2023-11-19T03:43:08.746Z,101901.04
2023-11-19T03:45:36.863Z,101902.23
2023-11-19T03:48:05.585Z,101900.89
2023-11-19T03:50:33.849Z,101902.65
2023-11-19T03:53:04.064Z,101900.48
2023-11-19T03:55:32.691Z,101896.36
2023-11-19T03:58:01.697Z,101895.60
2023-11-19T04:00:29.908Z,101899.83
2023-11-19T04:02:58.290Z,101893.59
2023-11-19T04:05:27.760Z,101893.02
2023-11-19T04:07:55.949Z,101888.20
2023-11-19T04:10:24.730Z,101888.16
2023-11-19T04:12:53.041Z,101890.61
2023-11-19T04:15:21.228Z,101895.40
2023-11-19T04:17:49.805Z,101891.80
2023-11-19T04:20:18.806Z,101891.01
2023-11-19T04:22:47.000Z,101893.27
2023-11-19T04:25:15.412Z,101889.98
2023-11-19T04:27:43.717Z,101893.52
2023-11-19T04:30:12.666Z,101892.08
2023-11-19T04:32:41.417Z,101891.34
2023-11-19T04:35:10.327Z,101889.37
2023-11-19T04:37:38.738Z,101890.02
2023-11-19T04:40:07.858Z,101887.84
2023-11-19T04:42:36.419Z,101887.48
2023-11-19T04:45:04.959Z,101886.94
2023-11-19T04:47:33.384Z,101886.56
2023-11-19T04:50:01.777Z,101884.05
2023-11-19T04:52:30.023Z,101883.33
2023-11-19T04:54:58.283Z,101884.45
2023-11-19T04:57:26.322Z,101884.29
2023-11-19T04:59:54.459Z,101884.62
2023-11-19T05:02:22.787Z,101882.30
2023-11-19T05:04:52.012Z,101885.46
2023-11-19T05:07:20.944Z,101884.55
2023-11-19T05:09:49.382Z,101883.48
2023-11-19T05:12:17.706Z,101879.93
2023-11-19T05:14:45.903Z,101884.01
2023-11-19T05:17:14.304Z,101885.92
2023-11-19T05:19:42.640Z,101887.33
2023-11-19T05:22:10.800Z,101884.99
2023-11-19T05:24:39.162Z,101883.52
2023-11-19T05:27:07.575Z,101889.89
2023-11-19T05:29:36.084Z,101889.33
2023-11-19T05:32:04.696Z,101885.05
2023-11-19T05:34:33.000Z,101880.20
2023-11-19T05:37:01.400Z,101881.25
2023-11-19T05:39:30.152Z,101878.91
2023-11-19T05:41:58.532Z,101882.63
2023-11-19T05:44:26.900Z,101883.85
2023-11-19T05:46:55.187Z,101882.77
2023-11-19T05:49:23.585Z,101880.96
2023-11-19T05:51:51.810Z,101879.86
2023-11-19T05:54:20.348Z,101877.29
2023-11-19T05:56:49.641Z,101879.20
2023-11-19T05:59:17.732Z,101877.54
2023-11-19T06:01:46.088Z,101876.96
2023-11-19T06:04:16.622Z,101874.27
2023-11-19T06:06:45.020Z,101873.15
2023-11-19T06:09:13.887Z,101873.61
2023-11-19T06:11:42.593Z,101868.55
2023-11-19T06:14:10.881Z,101870.64
2023-11-19T06:16:39.667Z,101871.29
2023-11-19T06:19:07.889Z,101867.32
2023-11-19T06:21:36.042Z,101867.06
2023-11-19T06:24:04.661Z,101862.91
2023-11-19T06:26:33.615Z,101863.52
2023-11-19T06:29:02.227Z,101866.82
2023-11-19T06:31:31.048Z,101868.37
2023-11-19T06:33:59.244Z,101867.60
2023-11-19T06:36:27.912Z,101868.77
2023-11-19T06:38:56.424Z,101869.81
2023-11-19T06:41:24.570Z,101873.51
2023-11-19T06:43:53.375Z,101873.81
2023-11-19T06:46:22.059Z,101876.26
2023-11-19T06:48:50.633Z,101879.45
2023-11-19T06:51:18.861Z,101875.53
2023-11-19T06:53:47.253Z,101879.09
2023-11-19T06:56:23.041Z,101878.95
2023-11-19T06:58:52.626Z,101877.73
2023-11-19T07:01:21.609Z,101876.50
2023-11-19T07:03:50.531Z,101877.39
2023-11-19T07:06:19.310Z,101870.98
2023-11-19T07:08:47.656Z,101876.66
2023-11-19T07:11:15.937Z,101878.80
2023-11-19T07:13:44.407Z,101880.59
2023-11-19T07:16:15.190Z,101881.15
2023-11-19T07:18:43.532Z,101882.44
2023-11-19T07:21:12.353Z,101883.04
2023-11-19T07:23:40.710Z,101887.70
2023-11-19T07:26:09.102Z,101888.02
2023-11-19T07:28:37.540Z,101888.70
2023-11-19T07:31:05.964Z,101894.34
2023-11-19T07:33:34.276Z,101893.05
2023-11-19T07:36:02.881Z,101896.00
2023-11-19T07:38:31.091Z,101898.44
2023-11-19T07:40:59.446Z,101902.63
2023-11-19T07:43:28.282Z,101902.55
2023-11-19T07:45:56.471Z,101901.71
2023-11-19T07:48:24.853Z,101903.58
2023-11-19T07:50:54.073Z,101912.17
2023-11-19T07:53:22.323Z,101908.13
2023-11-19T07:55:50.565Z,101910.33
2023-11-19T07:58:18.821Z,101914.64
2023-11-19T08:00:47.070Z,101918.55
2023-11-19T08:03:15.594Z,101920.73
2023-11-19T08:05:44.582Z,101920.04
2023-11-19T08:08:13.469Z,101918.64
2023-11-19T08:10:42.460Z,101917.97
2023-11-19T08:13:10.986Z,101922.81
2023-11-19T08:15:39.460Z,101922.80
2023-11-19T08:18:08.029Z,101929.35
2023-11-19T08:20:36.308Z,101928.98
2023-11-19T08:23:04.996Z,101932.77
2023-11-19T08:25:33.393Z,101933.84
2023-11-19T08:28:01.773Z,101937.20
2023-11-19T08:30:30.325Z,101932.75
2023-11-19T08:32:58.670Z,101929.70
2023-11-19T08:35:27.717Z,101928.92
2023-11-19T08:37:56.051Z,101930.77
2023-11-19T08:40:24.339Z,101936.77
2023-11-19T08:42:53.310Z,101933.88
2023-11-19T08:45:21.818Z,101939.36
2023-11-19T08:47:50.143Z,101941.29
2023-11-19T08:50:19.950Z,101943.78
2023-11-19T08:52:48.535Z,101943.64
2023-11-19T08:55:16.876Z,101937.75
2023-11-19T08:57:45.180Z,101941.33
2023-11-19T09:00:13.630Z,101943.13
2023-11-19T09:02:41.977Z,101940.09
2023-11-19T09:05:10.632Z,101943.65
2023-11-19T09:07:39.025Z,101943.42
2023-11-19T09:10:07.772Z,101944.61
2023-11-19T09:12:36.485Z,101944.02
2023-11-19T09:15:05.054Z,101945.25
2023-11-19T09:17:33.409Z,101945.35
2023-11-19T09:20:02.081Z,101949.19
2023-11-19T09:22:30.487Z,101946.91
2023-11-19T09:24:58.751Z,101943.06
2023-11-19T09:27:27.146Z,101937.39
2023-11-19T09:29:56.156Z,101939.45
2023-11-19T09:32:24.840Z,101937.05
2023-11-19T09:34:53.508Z,101943.56
2023-11-19T09:37:22.350Z,101940.55
2023-11-19T09:39:51.503Z,101940.95
2023-11-19T09:42:20.678Z,101937.93
2023-11-19T09:44:50.528Z,101934.91
2023-11-19T09:47:21.145Z,101931.73
2023-11-19T09:49:51.373Z,101930.15
2023-11-19T09:52:19.643Z,101933.02
2023-11-19T09:54:48.291Z,101929.41
2023-11-19T09:57:18.166Z,101924.21
2023-11-19T09:59:47.626Z,101922.58
2023-11-19T10:02:16.756Z,101924.91
2023-11-19T10:04:47.750Z,101921.65
2023-11-19T10:07:16.184Z,101925.98
2023-11-19T10:09:44.459Z,101921.85
2023-11-19T10:12:12.686Z,101929.21
2023-11-19T10:14:42.776Z,101926.50
2023-11-19T10:17:11.015Z,101924.86
2023-11-19T10:19:41.429Z,101927.52
2023-11-19T10:22:09.920Z,101926.61
2023-11-19T10:24:40.024Z,101924.41
2023-11-19T10:27:10.446Z,101928.14
2023-11-19T10:29:38.936Z,101923.58
2023-11-19T10:32:24.570Z,101917.65
2023-11-19T10:35:08.041Z,101916.94
2023-11-19T10:37:36.151Z,101912.92
2023-11-19T10:40:04.932Z,101906.93
2023-11-19T10:42:33.195Z,101909.61
2023-11-19T10:45:01.964Z,101905.10
2023-11-19T10:50:02.935Z,101896.04
2023-11-19T10:52:34.988Z,101892.91
2023-11-19T10:55:08.324Z,101891.61
2023-11-19T10:57:38.242Z,101887.05
2023-11-19T11:00:07.967Z,101888.42
2023-11-19T11:02:42.057Z,101887.44
2023-11-19T11:05:12.967Z,101882.08
2023-11-19T11:07:42.036Z,101876.45
2023-11-19T11:10:13.392Z,101876.53
2023-11-19T11:12:43.314Z,101872.58
2023-11-19T11:15:15.770Z,101872.31
2023-11-19T11:17:46.947Z,101867.72
2023-11-19T11:20:15.716Z,101864.65
2023-11-19T11:23:22.318Z,101857.65
2023-11-19T11:26:16.482Z,101858.77
2023-11-19T11:28:57.850Z,101859.35
2023-11-19T11:31:41.706Z,101853.66
2023-11-19T11:34:24.799Z,101856.70
2023-11-19T11:37:17.479Z,101854.55
2023-11-19T11:39:47.911Z,101849.95
2023-11-19T11:42:19.292Z,101847.64
2023-11-19T11:45:07.359Z,101844.58
2023-11-19T11:47:44.931Z,101837.86
2023-11-19T11:50:20.674Z,101834.04
2023-11-19T11:52:58.245Z,101831.85
2023-11-19T11:55:35.217Z,101830.02
2023-11-19T11:58:04.966Z,101832.39
2023-11-19T12:00:42.602Z,101826.22
2023-11-19T12:03:12.975Z,101821.59
2023-11-19T12:05:47.880Z,101818.00
2023-11-19T12:08:20.846Z,101815.95
2023-11-19T12:10:56.944Z,101816.16
2023-11-19T12:13:25.593Z,101814.36
2023-11-19T12:15:59.754Z,101810.70
2023-11-19T12:18:29.442Z,101810.61
2023-11-19T12:20:58.192Z,101809.96
2023-11-19T12:23:26.449Z,101806.56
2023-11-19T12:25:54.598Z,101801.50
2023-11-19T12:28:22.810Z,101797.95
2023-11-19T12:30:50.912Z,101793.60
2023-11-19T12:33:19.459Z,101794.47
2023-11-19T12:35:48.382Z,101791.88
2023-11-19T12:38:23.026Z,101789.10
2023-11-19T12:41:23.626Z,101784.89
2023-11-19T12:43:52.270Z,101782.22
2023-11-19T12:46:21.514Z,101780.90
2023-11-19T12:48:50.487Z,101774.95
2023-11-19T12:51:18.978Z,101767.86
2023-11-19T12:53:53.968Z,101764.63
2023-11-19T12:56:22.642Z,101764.55
2023-11-19T12:58:51.095Z,101765.77
2023-11-19T13:01:19.902Z,101765.94
2023-11-19T13:03:48.649Z,101760.77
2023-11-19T13:06:17.494Z,101757.48
2023-11-19T13:08:46.789Z,101756.58
2023-11-19T13:11:14.864Z,101755.21
2023-11-19T13:14:02.457Z,101754.16
2023-11-19T13:16:30.886Z,101750.31
2023-11-19T13:18:59.334Z,101747.26
2023-11-19T13:21:27.404Z,101748.69
2023-11-19T13:23:55.477Z,101743.67
2023-11-19T13:26:23.744Z,101739.16
2023-11-19T13:28:51.791Z,101738.77
2023-11-19T13:31:20.267Z,101736.14
2023-11-19T13:33:48.616Z,101733.33
2023-11-19T13:36:17.672Z,101737.54
2023-11-19T13:38:46.219Z,101733.98
2023-11-19T13:41:14.838Z,101726.20
2023-11-19T13:43:42.971Z,101724.03
2023-11-19T13:46:11.853Z,101722.23
2023-11-19T13:48:40.785Z,101725.39
2023-11-19T13:51:09.466Z,101720.41
2023-11-19T13:56:09.068Z,101713.36
2023-11-19T13:58:37.109Z,101706.12
2023-11-19T14:01:05.618Z,101707.46
2023-11-19T14:03:34.504Z,101706.04
2023-11-19T14:06:02.814Z,101709.70
2023-11-19T14:08:31.163Z,101706.26
2023-11-19T14:10:59.346Z,101697.09
2023-11-19T14:13:27.421Z,101696.11
2023-11-19T14:15:55.961Z,101696.96
2023-11-19T14:18:24.170Z,101692.02
2023-11-19T14:20:52.241Z,101691.58
2023-11-19T14:23:20.413Z,101691.77
2023-11-19T14:25:48.518Z,101693.86
2023-11-19T14:28:16.581Z,101691.77
2023-11-19T14:30:44.789Z,101689.23
2023-11-19T14:33:13.048Z,101689.42
2023-11-19T14:35:41.026Z,101682.13
2023-11-19T14:38:09.314Z,101678.17
2023-11-19T14:43:08.375Z,101674.45
2023-11-19T14:45:42.198Z,101674.50
2023-11-19T14:48:15.976Z,101672.23
2023-11-19T14:50:44.101Z,101671.09
2023-11-19T14:53:12.967Z,101673.27
2023-11-19T14:55:40.978Z,101670.56
2023-11-19T14:58:11.260Z,101669.83
2023-11-19T15:00:40.970Z,101673.58
2023-11-19T15:03:09.545Z,101670.30
2023-11-19T15:05:38.229Z,101671.04
2023-11-19T15:08:06.422Z,101674.09
2023-11-19T15:10:35.215Z,101667.54
2023-11-19T15:13:03.270Z,101664.63
2023-11-19T15:18:02.411Z,101668.67
2023-11-19T15:20:31.049Z,101668.90
2023-11-19T15:22:59.449Z,101665.27
2023-11-19T15:25:27.805Z,101662.88
2023-11-19T15:27:55.985Z,101661.89
2023-11-19T15:30:24.358Z,101659.13
2023-11-19T15:32:52.506Z,101661.53
2023-11-19T15:35:20.666Z,101658.12
2023-11-19T15:37:48.832Z,101656.95
2023-11-19T15:40:17.066Z,101653.97
2023-11-19T15:42:45.694Z,101654.20
2023-11-19T15:45:13.761Z,101656.43
2023-11-19T15:47:42.302Z,101657.04
2023-11-19T15:50:10.556Z,101657.70
2023-11-19T15:52:38.916Z,101656.56
2023-11-19T15:55:07.145Z,101654.85
2023-11-19T15:57:35.271Z,101650.77
2023-11-19T16:00:03.555Z,101646.96
2023-11-19T16:02:32.404Z,101649.59
2023-11-19T16:05:01.334Z,101646.42
2023-11-19T16:07:30.780Z,101644.16
2023-11-19T16:09:59.142Z,101642.02
2023-11-19T16:12:27.366Z,101646.16
2023-11-19T16:14:55.487Z,101651.02
2023-11-19T16:17:23.971Z,101646.95
2023-11-19T16:19:51.963Z,101650.79
2023-11-19T16:22:21.290Z,101646.71
2023-11-19T16:24:50.482Z,101640.11
2023-11-19T16:29:49.770Z,101642.47
2023-11-19T16:32:17.935Z,101640.51
2023-11-19T16:34:46.425Z,101632.80
2023-11-19T16:37:18.114Z,101638.36
2023-11-19T16:39:46.219Z,101639.64
2023-11-19T16:42:14.331Z,101637.67
2023-11-19T16:44:42.681Z,101641.43
2023-11-19T16:47:10.896Z,101638.02
2023-11-19T16:49:39.019Z,101639.11
2023-11-19T16:52:07.196Z,101641.26
2023-11-19T16:54:35.208Z,101642.88
2023-11-19T16:57:03.368Z,101639.13
2023-11-19T16:59:31.537Z,101638.21
2023-11-19T17:01:59.836Z,101640.20
2023-11-19T17:04:28.086Z,101645.91
2023-11-19T17:06:56.442Z,101646.42
2023-11-19T17:09:24.428Z,101644.63
2023-11-19T17:11:52.483Z,101642.30
2023-11-19T17:14:39.658Z,101649.83
2023-11-19T17:17:08.494Z,101651.96
2023-11-19T17:19:37.421Z,101649.82
2023-11-19T17:22:05.601Z,101647.83
2023-11-19T17:24:33.674Z,101644.96
2023-11-19T17:27:02.032Z,101646.38
2023-11-19T17:29:31.683Z,101646.36
2023-11-19T17:32:00.737Z,101649.41
2023-11-19T17:34:30.435Z,101647.60
2023-11-19T17:36:58.467Z,101650.47
2023-11-19T17:39:26.537Z,101646.86
2023-11-19T17:41:54.998Z,101649.20
2023-11-19T17:44:23.257Z,101651.35
2023-11-19T17:46:51.294Z,101652.77
2023-11-19T17:49:19.681Z,101651.15
2023-11-19T17:51:47.771Z,101654.17
2023-11-19T17:54:16.065Z,101654.34
2023-11-19T17:56:44.628Z,101652.02
2023-11-19T17:59:12.806Z,101652.54
2023-11-19T18:01:40.963Z,101651.95
2023-11-19T18:04:09.390Z,101649.60
2023-11-19T18:06:39.595Z,101648.70
2023-11-19T18:09:08.488Z,101647.98
2023-11-19T18:11:39.651Z,101644.21
2023-11-19T18:14:08.409Z,101645.80
2023-11-19T18:16:36.561Z,101641.85
2023-11-19T18:19:04.754Z,101646.83
2023-11-19T18:21:33.187Z,101645.37
2023-11-19T18:24:01.319Z,101648.77
2023-11-19T18:29:00.848Z,101659.33
2023-11-19T18:31:29.591Z,101657.88
2023-11-19T18:33:57.904Z,101654.84
2023-11-19T18:36:26.307Z,101655.54
2023-11-19T18:38:54.386Z,101653.02
2023-11-19T18:41:22.496Z,101653.72
2023-11-19T18:43:50.887Z,101650.69
2023-11-19T18:46:19.862Z,101657.65
2023-11-19T18:48:49.679Z,101658.89
2023-11-19T18:51:17.741Z,101664.97
2023-11-19T18:53:45.790Z,101668.16
2023-11-19T18:56:14.459Z,101667.80
2023-11-19T18:58:43.256Z,101665.81
2023-11-19T19:01:13.794Z,101670.27
2023-11-19T19:03:43.348Z,101670.05
2023-11-19T19:06:12.996Z,101674.15
2023-11-19T19:08:41.202Z,101674.84
2023-11-19T19:11:10.824Z,101677.15
2023-11-19T19:13:39.229Z,101676.79
2023-11-19T19:16:08.690Z,101680.17
2023-11-19T19:18:36.853Z,101678.55
2023-11-19T19:21:05.456Z,101676.38
2023-11-19T19:23:33.702Z,101675.11
2023-11-19T19:26:01.969Z,101674.73
2023-11-19T19:28:31.797Z,101676.68
2023-11-19T19:30:59.806Z,101674.53
2023-11-19T19:33:27.821Z,101675.06
2023-11-19T19:35:55.931Z,101672.35
2023-11-19T19:38:24.078Z,101674.65
2023-11-19T19:40:52.112Z,101672.83
2023-11-19T19:43:20.454Z,101676.76
2023-11-19T19:45:49.058Z,101676.39
2023-11-19T19:48:17.336Z,101676.92
2023-11-19T19:50:45.950Z,101677.45
2023-11-19T19:53:13.963Z,101676.90
2023-11-19T19:55:42.072Z,101678.31
2023-11-19T19:58:10.201Z,101675.23
2023-11-19T20:00:38.434Z,101676.09
2023-11-19T20:03:06.634Z,101672.11
2023-11-19T20:05:35.441Z,101669.06
2023-11-19T20:08:03.815Z,101668.14
2023-11-19T20:10:33.141Z,101669.36
2023-11-19T20:13:03.119Z,101669.15
2023-11-19T20:15:31.319Z,101665.71
2023-11-19T20:17:59.426Z,101664.95
2023-11-19T20:20:28.827Z,101666.17
2023-11-19T20:22:56.923Z,101664.89
2023-11-19T20:25:25.215Z,101662.01
2023-11-19T20:27:53.474Z,101663.23
2023-11-19T20:30:21.729Z,101664.81
2023-11-19T20:32:49.949Z,101667.66
2023-11-19T20:35:18.448Z,101666.59
2023-11-19T20:37:46.529Z,101663.86
2023-11-19T20:40:14.559Z,101666.53
2023-11-19T20:42:42.748Z,101667.77
2023-11-19T20:45:10.871Z,101671.33
2023-11-19T20:47:39.691Z,101673.28
2023-11-19T20:50:07.999Z,101673.80
2023-11-19T20:52:36.761Z,101673.60
2023-11-19T20:55:05.090Z,101677.14
2023-11-19T20:57:33.622Z,101680.89
2023-11-19T21:00:02.091Z,101688.19
2023-11-19T21:02:30.163Z,101685.30
2023-11-19T21:04:58.542Z,101690.80
2023-11-19T21:07:26.695Z,101691.48
2023-11-19T21:09:54.748Z,101689.52
2023-11-19T21:12:22.916Z,101693.61
2023-11-19T21:14:50.995Z,101694.30
2023-11-19T21:17:21.211Z,101691.25
2023-11-19T21:19:50.361Z,101694.09
2023-11-19T21:22:18.472Z,101696.36
2023-11-19T21:24:46.472Z,101695.40
2023-11-19T21:27:14.589Z,101701.09
2023-11-19T21:29:42.848Z,101699.65
2023-11-19T21:32:10.869Z,101699.25
2023-11-19T21:34:39.137Z,101700.26
2023-11-19T21:37:07.484Z,101703.41
2023-11-19T21:39:35.747Z,101700.67
2023-11-19T21:42:04.114Z,101707.39
2023-11-19T21:44:32.117Z,101705.73
2023-11-19T21:47:00.258Z,101705.87
2023-11-19T21:49:28.656Z,101707.23
2023-11-19T21:51:56.685Z,101712.35
2023-11-19T21:54:24.831Z,101711.77
2023-11-19T21:56:53.009Z,101711.55
2023-11-19T21:59:21.108Z,101711.67
2023-11-19T22:01:49.342Z,101711.45
2023-11-19T22:04:17.562Z,101712.33
2023-11-19T22:06:45.685Z,101710.69
2023-11-19T22:09:13.986Z,101709.20
2023-11-19T22:11:42.772Z,101708.59
2023-11-19T22:14:10.827Z,101716.05
2023-11-19T22:16:38.907Z,101712.25
2023-11-19T22:19:06.986Z,101710.91
2023-11-19T22:21:34.990Z,101706.23
2023-11-19T22:24:03.349Z,101702.27
2023-11-19T22:26:32.250Z,101700.26
2023-11-19T22:29:00.216Z,101698.40
2023-11-19T22:31:32.423Z,101690.52
2023-11-19T22:34:01.510Z,101684.05
2023-11-19T22:36:31.136Z,101685.42
2023-11-19T22:38:59.526Z,101682.85
2023-11-19T22:41:27.564Z,101679.95
2023-11-19T22:43:55.682Z,101679.71
2023-11-19T22:46:23.871Z,101678.42
2023-11-19T22:48:52.062Z,101678.57
2023-11-19T22:51:20.078Z,101677.65
2023-11-19T22:53:48.435Z,101677.77
2023-11-19T22:56:17.066Z,101680.60
2023-11-19T22:58:45.075Z,101681.10
2023-11-19T23:01:13.529Z,101679.14
2023-11-19T23:03:41.680Z,101676.93
2023-11-19T23:06:10.045Z,101675.80
2023-11-19T23:08:38.447Z,101673.22
2023-11-19T23:11:07.938Z,101668.51
2023-11-19T23:13:36.060Z,101668.25
2023-11-19T23:16:04.481Z,101667.84
2023-11-19T23:18:32.697Z,101669.59
2023-11-19T23:21:00.838Z,101671.36
2023-11-19T23:23:29.286Z,101665.27
2023-11-19T23:25:57.287Z,101668.07
2023-11-19T23:28:25.468Z,101665.70
2023-11-19T23:30:53.769Z,101667.30
2023-11-19T23:33:21.955Z,101665.52
2023-11-19T23:35:50.048Z,101670.98
2023-11-19T23:38:18.340Z,101669.19
2023-11-19T23:40:46.380Z,101665.58
2023-11-19T23:43:14.449Z,101666.45
2023-11-19T23:45:43.450Z,101662.52
2023-11-19T23:48:11.589Z,101668.39
2023-11-19T23:50:59.647Z,101665.33
2023-11-19T23:53:27.681Z,101666.89
2023-11-19T23:55:55.701Z,101670.06
2023-11-19T23:58:23.788Z,101671.44
